• Join FlightAware (Why Join?)
  • Login
  • US Flag 
12:20AM EST


 

Airport Tracker/Info


-or-


 

Live Flight TrackerFlight Track Log ✈ GJS6221 ✈ 09-Oct-2013 ✈ KLGA - KSAV

Flight Track Log - Related Links

Times and Time Zones

All times are in EDT time to prevent confusion due to time zone crossing. See the GJS6221 flight status page for this flight to view local times or setup timezone preferences in your user account.

Time Position Orientation Groundspeed Altitude Reporting Facility
EDT Latitude Longitude Course Direction KTS MPH feet Rate Location/Type
02:18PM 40.7167 -73.8333 225° Southwest 194 223 3,700  Level New York TRACON
02:19PM 40.6667 -73.8500 194° South 259 298 6,100 2,460 Climbing New York TRACON
02:20PM 40.6000 -73.9167 217° Southwest 290 334 8,700 2,280 Climbing New York TRACON
02:23PM 40.4353 -74.0350 209° Southwest 313 360 13,500 2,160 Climbing New York Center
02:24PM 40.2719 -74.3622 225° Southwest  Level Estimated
02:24PM 40.3569 -74.0747 201° Southwest 333 383 15,600  Level New York Center
02:25PM 40.2556 -74.1269 201° Southwest 351 404 17,900 1,800 Climbing New York Center
02:26PM 40.1603 -74.1739 201° Southwest 358 412 19,300 1,020 Climbing New York Center
02:27PM 40.0767 -74.2567 217° Southwest 363 418 20,000 300 Climbing New York Center
02:28PM 39.9947 -74.3500 221° Southwest 379 436 20,000 780 Level New York Center
02:30PM 39.8153 -74.5489 220° Southwest 389 448 22,700 1,320 Climbing Washington Center
02:31PM 39.7347 -74.6392 221° Southwest 384 442 24,300 1,320 Climbing Washington Center
02:32PM 39.6519 -74.7264 219° Southwest 384 442 25,400 1,020 Climbing Washington Center
02:33PM 39.5672 -74.8217 221° Southwest 395 455 26,400 960 Climbing Washington Center
02:34PM 39.4761 -74.9194 220° Southwest 408 470 27,400 960 Climbing Washington Center
02:35PM 39.3892 -75.0169 221° Southwest 418 481 28,400 960 Climbing Washington Center
02:36PM 39.2936 -75.1117 218° Southwest 424 488 29,400 960 Climbing Washington Center
02:37PM 39.1833 -75.1631 200° South 424 488 30,400 960 Climbing Washington Center
02:38PM 39.0689 -75.2147 199° South 424 488 31,400 960 Climbing Washington Center
02:39PM 38.9586 -75.2581 197° South 429 494 32,400 1,020 Climbing Washington Center
02:40PM 38.8461 -75.3039 198° South 424 488 33,500 1,080 Climbing Washington Center
02:41PM 38.7378 -75.3494 198° South 424 488 34,600 1,080 Climbing Washington Center
02:42PM 38.6317 -75.3978 200° South 424 488 35,700 600 Climbing Washington Center
02:43PM 38.5233 -75.4378 196° South 419 482 35,900 60 Climbing Washington Center
02:44PM 38.4192 -75.4806 198° South 407 468 35,900  Level Washington Center
02:45PM 38.3169 -75.5389 204° Southwest 401 461 35,900  Level Washington Center
02:46PM 38.2272 -75.6181 215° Southwest 401 461 36,000  Climbing Washington Center
02:47PM 38.1375 -75.7000 216° Southwest 401 461 36,000 60 Level Washington Center
02:48PM 38.0458 -75.7894 218° Southwest 408 470 36,200 420 Climbing Washington Center
02:49PM 37.9558 -75.8761 217° Southwest 413 475 36,900 660 Climbing Washington Center
02:50PM 37.8639 -75.9600 216° Southwest 413 475 37,600 540 Climbing Washington Center
02:51PM 37.7739 -76.0436 216° Southwest 413 475 38,000 120 Climbing Washington Center
02:52PM 37.6861 -76.1350 219° Southwest 413 475 37,900  Descending Washington Center
02:53PM 37.5917 -76.2103 212° Southwest 413 475 38,000  Climbing Washington Center
02:54PM 37.5017 -76.2961 217° Southwest 407 468 38,000  Level Washington Center
02:55PM 37.4197 -76.3736 217° Southwest 407 468 38,000  Level Washington Center
02:56PM 37.3317 -76.4564 217° Southwest 412 474 38,000  Level Washington Center
02:57PM 37.2350 -76.5519 218° Southwest 412 474 38,000  Level Washington Center
02:58PM 37.1467 -76.6419 219° Southwest 412 474 38,000  Level Washington Center
02:59PM 37.0561 -76.7292 218° Southwest 412 474 38,000  Level Washington Center
03:00PM 36.9656 -76.8161 218° Southwest 417 480 38,000  Level Washington Center
03:01PM 36.8769 -76.9058 219° Southwest 417 480 38,000  Level Washington Center
03:02PM 36.7864 -76.9950 218° Southwest 417 480 38,000  Level Washington Center
03:03PM 36.6975 -77.0814 218° Southwest 417 480 38,000  Level Washington Center
03:04PM 36.6153 -77.1600 218° Southwest 417 480 38,000  Level Washington Center
03:05PM 36.5264 -77.2461 218° Southwest 417 480 38,000  Level Washington Center
03:06PM 36.4356 -77.3347 218° Southwest 417 480 38,000  Level Washington Center
03:07PM 36.3444 -77.4203 217° Southwest 417 480 38,000  Level Washington Center
03:08PM 36.2597 -77.5058 219° Southwest 409 471 38,000  Level Washington Center
03:09PM 36.1706 -77.5911 218° Southwest 404 465 38,000  Level Washington Center
03:10PM 36.0794 -77.6764 217° Southwest 404 465 38,000  Level Washington Center
03:11PM 35.9903 -77.7639 218° Southwest 404 465 38,000  Level Washington Center
03:12PM 35.9011 -77.8458 217° Southwest 404 465 38,000  Level Washington Center
03:13PM 35.8097 -77.9306 217° Southwest 404 465 38,000  Level Washington Center
03:14PM 35.7183 -78.0147 217° Southwest 409 471 38,000  Level Washington Center
03:15PM 35.6292 -78.0989 218° Southwest 409 471 38,000  Level Washington Center
03:16PM 35.5397 -78.1803 217° Southwest 409 471 38,000  Level Washington Center
03:17PM 35.4461 -78.2639 216° Southwest 414 476 38,000  Level Washington Center
03:18PM 35.3503 -78.3500 216° Southwest 419 482 38,000  Level Washington Center
03:19PM 35.2500 -78.4458 218° Southwest 419 482 38,000  Level Washington Center
03:20PM 35.1603 -78.5314 218° Southwest 424 488 38,000  Level Washington Center
03:21PM 35.0683 -78.6169 217° Southwest 424 488 38,000  Level Washington Center
03:22PM 34.9764 -78.7022 217° Southwest 424 488 38,000  Level Washington Center
03:24PM 34.7597 -78.8950 216° Southwest 419 482 38,000  Level Jacksonville Center
03:25PM 34.6664 -78.9800 217° Southwest 419 482 38,000  Level Jacksonville Center
03:26PM 34.5753 -79.0622 217° Southwest 419 482 38,000 -60 Level Jacksonville Center
03:27PM 34.4781 -79.1600 220° Southwest 419 482 37,900 -60 Descending Jacksonville Center
03:28PM 34.3825 -79.2444 216° Southwest 425 489 37,900  Level Jacksonville Center
03:29PM 34.2908 -79.3264 216° Southwest 425 489 37,900  Level Jacksonville Center
03:30PM 34.1994 -79.4078 216° Southwest 420 483 37,900 -60 Level Jacksonville Center
03:31PM 34.1178 -79.4789 216° Southwest 413 475 37,800 -600 Descending Jacksonville Center
03:32PM 34.0261 -79.5600 216° Southwest 413 475 36,800 -1,020 Descending Jacksonville Center
03:33PM 33.9322 -79.6436 216° Southwest 418 481 35,800 -1,020 Descending Jacksonville Center
03:34PM 33.8406 -79.7247 216° Southwest 418 481 34,800 -1,020 Descending Jacksonville Center
03:35PM 33.7464 -79.8053 215° Southwest 418 481 33,800 -1,020 Descending Jacksonville Center
03:36PM 33.6547 -79.8883 217° Southwest 418 481 32,800 -1,020 Descending Jacksonville Center
03:37PM 33.5606 -79.9714 216° Southwest 418 481 31,800 -1,020 Descending Jacksonville Center
03:38PM 33.4686 -80.0542 217° Southwest 418 481 30,800 -1,020 Descending Jacksonville Center
03:39PM 33.3783 -80.1342 217° Southwest 418 481 29,800 -1,020 Descending Jacksonville Center
03:40PM 33.2842 -80.2167 216° Southwest 418 481 28,800 -1,140 Descending Jacksonville Center
03:41PM 33.1797 -80.3039 215° Southwest 423 487 27,600 -1,200 Descending Jacksonville Center
03:42PM 33.0872 -80.3861 217° Southwest 416 479 26,400 -1,200 Descending Jacksonville Center
03:43PM 33.0072 -80.4553 216° Southwest 406 467 25,300 -1,440 Descending Jacksonville Center
03:44PM 32.9211 -80.5267 215° Southwest 394 453 23,600 -2,100 Descending Jacksonville Center
03:45PM 32.8367 -80.5983 215° Southwest 383 441 21,100 -2,520 Descending Jacksonville Center
03:46PM 32.7567 -80.6669 216° Southwest 376 433 18,600 -2,460 Descending Jacksonville Center
03:47PM 32.6783 -80.7331 215° Southwest 366 421 16,200 -2,460 Descending Jacksonville Center
03:48PM 32.6003 -80.8014 216° Southwest 361 415 13,700 -2,520 Descending Jacksonville Center
03:49PM 32.5219 -80.8647 214° Southwest 356 410 11,200 -2,100 Descending Jacksonville Center
03:50PM 32.4478 -80.9356 219° Southwest 332 382 9,600 -1,560 Descending Jacksonville Center
03:51PM 32.3797 -80.9886 213° Southwest 302 348 8,100 -840 Descending Jacksonville Center
03:52PM 32.3050 -81.0097 193° South 297 342 8,000 -840 Descending Jacksonville Center
03:53PM 32.2239 -81.0286 191° South 305 351 6,500 -1,800 Descending Jacksonville Center
03:54PM 32.1344 -81.0525 193° South 305 351 4,400 -1,320 Descending Jacksonville Center
03:55PM 32.0636 -81.0736 194° South 283 326 3,900 -900 Descending Jacksonville Center
03:56PM 32.0228 -81.1333 231° Southwest 225 259 2,700 -1,020 Descending Jacksonville Center
03:57PM 32.0297 -81.1919 278° West 199 229 1,900 -900 Descending Jacksonville Center
03:58PM 32.0675 -81.2011 348° North 134 154 900 -840 Descending Jacksonville Center
03:59PM 32.1031 -81.2053 354° North 115 132 300 11,520 Descending Jacksonville Center
04:00PM 32.1306 -81.2367 316° Northwest 115 132 24,000 23,700 Climbing Jacksonville Center
04:02PM 32.1167 -81.2000 North  Level FlightAware Approximate